sensor_id;sensor_type;location;lat;lon;timestamp;P1;durP1;ratioP1;P2;durP2;ratioP2
13114;SDS011;6623;52.120;8.660;2023-05-25T00:01:25;1.00;;;0.90;;
13114;SDS011;6623;52.120;8.660;2023-05-25T00:03:51;1.40;;;1.00;;
13114;SDS011;6623;52.120;8.660;2023-05-25T00:06:19;1.30;;;1.03;;
13114;SDS011;6623;52.120;8.660;2023-05-25T00:08:45;1.33;;;1.07;;
13114;SDS011;6623;52.120;8.660;2023-05-25T00:11:11;1.20;;;1.00;;
13114;SDS011;6623;52.120;8.660;2023-05-25T00:13:37;0.97;;;0.87;;
13114;SDS011;6623;52.120;8.660;2023-05-25T00:16:03;1.47;;;1.00;;
13114;SDS011;6623;52.120;8.660;2023-05-25T00:18:30;1.90;;;1.10;;
13114;SDS011;6623;52.120;8.660;2023-05-25T00:20:57;1.83;;;1.10;;
13114;SDS011;6623;52.120;8.660;2023-05-25T00:23:23;1.47;;;1.00;;
13114;SDS011;6623;52.120;8.660;2023-05-25T00:25:48;1.57;;;1.03;;
13114;SDS011;6623;52.120;8.660;2023-05-25T00:28:14;0.90;;;0.80;;
13114;SDS011;6623;52.120;8.660;2023-05-25T00:30:40;1.43;;;1.03;;
13114;SDS011;6623;52.120;8.660;2023-05-25T00:33:05;1.33;;;0.93;;
13114;SDS011;6623;52.120;8.660;2023-05-25T00:35:31;1.80;;;1.10;;
13114;SDS011;6623;52.120;8.660;2023-05-25T00:37:56;1.33;;;1.10;;
13114;SDS011;6623;52.120;8.660;2023-05-25T00:40:22;1.93;;;1.10;;
13114;SDS011;6623;52.120;8.660;2023-05-25T00:42:47;1.53;;;1.17;;
13114;SDS011;6623;52.120;8.660;2023-05-25T00:45:14;1.67;;;1.20;;
13114;SDS011;6623;52.120;8.660;2023-05-25T00:47:40;1.47;;;1.00;;
13114;SDS011;6623;52.120;8.660;2023-05-25T00:50:07;1.20;;;0.90;;
13114;SDS011;6623;52.120;8.660;2023-05-25T00:52:34;1.30;;;1.07;;
13114;SDS011;6623;52.120;8.660;2023-05-25T00:54:59;1.20;;;1.00;;
13114;SDS011;6623;52.120;8.660;2023-05-25T00:57:27;1.47;;;1.03;;
13114;SDS011;6623;52.120;8.660;2023-05-25T00:59:57;1.60;;;1.00;;
13114;SDS011;6623;52.120;8.660;2023-05-25T01:02:24;1.50;;;1.10;;
13114;SDS011;6623;52.120;8.660;2023-05-25T01:04:51;1.20;;;1.00;;
13114;SDS011;6623;52.120;8.660;2023-05-25T01:07:20;1.60;;;1.00;;
13114;SDS011;6623;52.120;8.660;2023-05-25T01:09:59;1.57;;;1.10;;
13114;SDS011;6623;52.120;8.660;2023-05-25T01:12:26;1.60;;;1.00;;
13114;SDS011;6623;52.120;8.660;2023-05-25T01:14:53;0.90;;;0.90;;
13114;SDS011;6623;52.120;8.660;2023-05-25T01:17:19;1.27;;;0.90;;
13114;SDS011;6623;52.120;8.660;2023-05-25T01:19:46;1.40;;;1.10;;
13114;SDS011;6623;52.120;8.660;2023-05-25T01:22:17;2.00;;;0.90;;
13114;SDS011;6623;52.120;8.660;2023-05-25T01:24:48;1.20;;;1.00;;
13114;SDS011;6623;52.120;8.660;2023-05-25T01:29:46;1.10;;;0.90;;
13114;SDS011;6623;52.120;8.660;2023-05-25T01:32:13;1.90;;;1.10;;
13114;SDS011;6623;52.120;8.660;2023-05-25T01:34:39;1.33;;;1.10;;
13114;SDS011;6623;52.120;8.660;2023-05-25T01:37:07;1.27;;;0.90;;
13114;SDS011;6623;52.120;8.660;2023-05-25T01:39:32;1.23;;;1.10;;
13114;SDS011;6623;52.120;8.660;2023-05-25T01:41:58;1.50;;;1.20;;
13114;SDS011;6623;52.120;8.660;2023-05-25T01:44:23;1.77;;;1.13;;
13114;SDS011;6623;52.120;8.660;2023-05-25T01:46:52;1.93;;;1.30;;
13114;SDS011;6623;52.120;8.660;2023-05-25T01:49:27;1.60;;;0.90;;
13114;SDS011;6623;52.120;8.660;2023-05-25T01:52:03;1.03;;;0.90;;
13114;SDS011;6623;52.120;8.660;2023-05-25T01:54:35;1.20;;;1.10;;
13114;SDS011;6623;52.120;8.660;2023-05-25T01:57:06;1.90;;;1.00;;
13114;SDS011;6623;52.120;8.660;2023-05-25T01:59:34;1.23;;;1.00;;
13114;SDS011;6623;52.120;8.660;2023-05-25T02:02:02;1.50;;;0.90;;
13114;SDS011;6623;52.120;8.660;2023-05-25T02:04:29;1.40;;;1.00;;
13114;SDS011;6623;52.120;8.660;2023-05-25T02:06:55;1.33;;;1.00;;
13114;SDS011;6623;52.120;8.660;2023-05-25T02:09:21;1.10;;;1.00;;
13114;SDS011;6623;52.120;8.660;2023-05-25T02:11:47;1.40;;;1.10;;
13114;SDS011;6623;52.120;8.660;2023-05-25T02:14:13;1.33;;;0.93;;
13114;SDS011;6623;52.120;8.660;2023-05-25T02:16:39;1.30;;;1.10;;
13114;SDS011;6623;52.120;8.660;2023-05-25T02:19:04;1.43;;;1.10;;
13114;SDS011;6623;52.120;8.660;2023-05-25T02:21:30;1.83;;;1.00;;
13114;SDS011;6623;52.120;8.660;2023-05-25T02:23:56;1.40;;;1.00;;
13114;SDS011;6623;52.120;8.660;2023-05-25T02:26:22;0.87;;;0.83;;
13114;SDS011;6623;52.120;8.660;2023-05-25T02:28:47;1.50;;;0.90;;
13114;SDS011;6623;52.120;8.660;2023-05-25T02:31:15;1.50;;;1.10;;
13114;SDS011;6623;52.120;8.660;2023-05-25T02:33:40;1.00;;;0.90;;
13114;SDS011;6623;52.120;8.660;2023-05-25T02:36:06;1.77;;;1.10;;
13114;SDS011;6623;52.120;8.660;2023-05-25T02:38:32;1.57;;;1.20;;
13114;SDS011;6623;52.120;8.660;2023-05-25T02:40:57;1.50;;;1.10;;
13114;SDS011;6623;52.120;8.660;2023-05-25T02:43:23;1.20;;;0.90;;
13114;SDS011;6623;52.120;8.660;2023-05-25T02:45:48;1.30;;;1.10;;
13114;SDS011;6623;52.120;8.660;2023-05-25T02:48:14;1.47;;;1.20;;
13114;SDS011;6623;52.120;8.660;2023-05-25T02:50:39;1.43;;;1.00;;
13114;SDS011;6623;52.120;8.660;2023-05-25T02:53:05;1.77;;;1.10;;
13114;SDS011;6623;52.120;8.660;2023-05-25T02:55:30;1.73;;;1.10;;
13114;SDS011;6623;52.120;8.660;2023-05-25T02:57:56;1.47;;;1.00;;
13114;SDS011;6623;52.120;8.660;2023-05-25T03:00:23;2.20;;;1.10;;
13114;SDS011;6623;52.120;8.660;2023-05-25T03:02:48;1.53;;;1.10;;
13114;SDS011;6623;52.120;8.660;2023-05-25T03:05:14;1.47;;;1.10;;
13114;SDS011;6623;52.120;8.660;2023-05-25T03:07:41;1.43;;;1.10;;
13114;SDS011;6623;52.120;8.660;2023-05-25T03:10:07;1.20;;;1.10;;
13114;SDS011;6623;52.120;8.660;2023-05-25T03:12:33;1.30;;;0.90;;
13114;SDS011;6623;52.120;8.660;2023-05-25T03:14:59;1.40;;;1.07;;
13114;SDS011;6623;52.120;8.660;2023-05-25T03:17:24;1.50;;;1.20;;
13114;SDS011;6623;52.120;8.660;2023-05-25T03:19:50;1.00;;;0.90;;
13114;SDS011;6623;52.120;8.660;2023-05-25T03:22:16;1.37;;;1.00;;
13114;SDS011;6623;52.120;8.660;2023-05-25T03:24:41;1.30;;;1.00;;
13114;SDS011;6623;52.120;8.660;2023-05-25T03:27:07;1.17;;;1.00;;
13114;SDS011;6623;52.120;8.660;2023-05-25T03:29:33;1.17;;;1.07;;
13114;SDS011;6623;52.120;8.660;2023-05-25T03:31:58;1.17;;;0.87;;
13114;SDS011;6623;52.120;8.660;2023-05-25T03:34:24;0.90;;;0.80;;
13114;SDS011;6623;52.120;8.660;2023-05-25T03:36:50;1.53;;;1.17;;
13114;SDS011;6623;52.120;8.660;2023-05-25T03:39:18;1.27;;;1.07;;
13114;SDS011;6623;52.120;8.660;2023-05-25T03:41:45;1.37;;;0.97;;
13114;SDS011;6623;52.120;8.660;2023-05-25T03:44:11;1.10;;;1.00;;
13114;SDS011;6623;52.120;8.660;2023-05-25T03:46:36;1.20;;;1.00;;
13114;SDS011;6623;52.120;8.660;2023-05-25T03:49:02;1.33;;;1.00;;
13114;SDS011;6623;52.120;8.660;2023-05-25T03:51:28;0.90;;;0.83;;
13114;SDS011;6623;52.120;8.660;2023-05-25T03:53:53;1.47;;;1.20;;
13114;SDS011;6623;52.120;8.660;2023-05-25T03:56:19;1.03;;;0.93;;
13114;SDS011;6623;52.120;8.660;2023-05-25T03:58:45;1.60;;;1.10;;
13114;SDS011;6623;52.120;8.660;2023-05-25T04:01:11;1.50;;;1.10;;
13114;SDS011;6623;52.120;8.660;2023-05-25T04:03:37;1.60;;;1.00;;
13114;SDS011;6623;52.120;8.660;2023-05-25T04:06:03;1.03;;;0.90;;
13114;SDS011;6623;52.120;8.660;2023-05-25T04:08:28;1.13;;;1.00;;
13114;SDS011;6623;52.120;8.660;2023-05-25T04:10:54;1.40;;;0.97;;
13114;SDS011;6623;52.120;8.660;2023-05-25T04:13:20;1.07;;;0.97;;
13114;SDS011;6623;52.120;8.660;2023-05-25T04:15:45;1.60;;;1.07;;
13114;SDS011;6623;52.120;8.660;2023-05-25T04:18:11;1.30;;;0.90;;
13114;SDS011;6623;52.120;8.660;2023-05-25T04:20:37;1.20;;;1.10;;
13114;SDS011;6623;52.120;8.660;2023-05-25T04:23:02;1.40;;;1.00;;
13114;SDS011;6623;52.120;8.660;2023-05-25T04:25:28;1.43;;;1.03;;
13114;SDS011;6623;52.120;8.660;2023-05-25T04:27:53;1.00;;;0.90;;
13114;SDS011;6623;52.120;8.660;2023-05-25T04:30:20;1.80;;;0.90;;
13114;SDS011;6623;52.120;8.660;2023-05-25T04:32:46;2.17;;;1.10;;
13114;SDS011;6623;52.120;8.660;2023-05-25T04:35:11;1.20;;;0.90;;
13114;SDS011;6623;52.120;8.660;2023-05-25T04:37:38;1.00;;;0.90;;
13114;SDS011;6623;52.120;8.660;2023-05-25T04:40:05;1.30;;;1.00;;
13114;SDS011;6623;52.120;8.660;2023-05-25T04:42:35;1.00;;;0.90;;
13114;SDS011;6623;52.120;8.660;2023-05-25T04:45:02;1.23;;;1.00;;
13114;SDS011;6623;52.120;8.660;2023-05-25T04:47:28;1.27;;;0.97;;
13114;SDS011;6623;52.120;8.660;2023-05-25T04:49:54;1.07;;;0.93;;
13114;SDS011;6623;52.120;8.660;2023-05-25T04:52:20;1.13;;;0.90;;
13114;SDS011;6623;52.120;8.660;2023-05-25T04:54:46;1.53;;;1.00;;
13114;SDS011;6623;52.120;8.660;2023-05-25T04:57:12;1.20;;;1.03;;
13114;SDS011;6623;52.120;8.660;2023-05-25T04:59:37;1.37;;;1.17;;
13114;SDS011;6623;52.120;8.660;2023-05-25T05:02:03;1.50;;;1.10;;
13114;SDS011;6623;52.120;8.660;2023-05-25T05:04:28;1.10;;;1.00;;
13114;SDS011;6623;52.120;8.660;2023-05-25T05:06:54;1.23;;;1.00;;
13114;SDS011;6623;52.120;8.660;2023-05-25T05:09:19;1.27;;;1.03;;
13114;SDS011;6623;52.120;8.660;2023-05-25T05:11:45;1.00;;;0.90;;
13114;SDS011;6623;52.120;8.660;2023-05-25T05:14:10;0.87;;;0.83;;
13114;SDS011;6623;52.120;8.660;2023-05-25T05:16:36;1.00;;;0.90;;
13114;SDS011;6623;52.120;8.660;2023-05-25T05:19:01;1.20;;;1.00;;
13114;SDS011;6623;52.120;8.660;2023-05-25T05:21:27;1.13;;;1.00;;
13114;SDS011;6623;52.120;8.660;2023-05-25T05:23:53;1.10;;;0.90;;
13114;SDS011;6623;52.120;8.660;2023-05-25T05:26:20;1.20;;;0.90;;
13114;SDS011;6623;52.120;8.660;2023-05-25T05:28:45;1.20;;;1.10;;
13114;SDS011;6623;52.120;8.660;2023-05-25T05:31:11;1.43;;;1.00;;
13114;SDS011;6623;52.120;8.660;2023-05-25T05:33:36;1.10;;;1.00;;
13114;SDS011;6623;52.120;8.660;2023-05-25T05:36:03;1.50;;;1.10;;
13114;SDS011;6623;52.120;8.660;2023-05-25T05:38:29;1.07;;;0.80;;
13114;SDS011;6623;52.120;8.660;2023-05-25T05:40:55;1.00;;;0.90;;
13114;SDS011;6623;52.120;8.660;2023-05-25T05:43:20;1.13;;;1.00;;
13114;SDS011;6623;52.120;8.660;2023-05-25T05:45:46;1.00;;;0.90;;
13114;SDS011;6623;52.120;8.660;2023-05-25T05:48:11;0.83;;;0.83;;
13114;SDS011;6623;52.120;8.660;2023-05-25T05:50:37;1.47;;;1.10;;
13114;SDS011;6623;52.120;8.660;2023-05-25T05:53:03;1.13;;;0.90;;
13114;SDS011;6623;52.120;8.660;2023-05-25T05:55:30;1.10;;;0.93;;
13114;SDS011;6623;52.120;8.660;2023-05-25T05:57:55;1.00;;;0.90;;
13114;SDS011;6623;52.120;8.660;2023-05-25T06:00:21;1.00;;;0.90;;
13114;SDS011;6623;52.120;8.660;2023-05-25T06:02:47;1.00;;;0.90;;
13114;SDS011;6623;52.120;8.660;2023-05-25T06:05:12;1.33;;;0.87;;
13114;SDS011;6623;52.120;8.660;2023-05-25T06:07:38;1.70;;;1.10;;
13114;SDS011;6623;52.120;8.660;2023-05-25T06:10:04;1.70;;;1.00;;
13114;SDS011;6623;52.120;8.660;2023-05-25T06:12:30;1.03;;;0.90;;
13114;SDS011;6623;52.120;8.660;2023-05-25T06:14:55;0.80;;;0.80;;
13114;SDS011;6623;52.120;8.660;2023-05-25T06:17:21;1.13;;;0.93;;
13114;SDS011;6623;52.120;8.660;2023-05-25T06:19:47;1.40;;;1.07;;
13114;SDS011;6623;52.120;8.660;2023-05-25T06:22:14;1.20;;;0.90;;
13114;SDS011;6623;52.120;8.660;2023-05-25T06:24:40;1.10;;;1.00;;
13114;SDS011;6623;52.120;8.660;2023-05-25T06:27:05;1.20;;;1.00;;
13114;SDS011;6623;52.120;8.660;2023-05-25T06:29:30;1.07;;;0.97;;
13114;SDS011;6623;52.120;8.660;2023-05-25T06:31:56;1.27;;;1.00;;
13114;SDS011;6623;52.120;8.660;2023-05-25T06:34:22;1.20;;;1.00;;
13114;SDS011;6623;52.120;8.660;2023-05-25T06:36:47;1.47;;;1.10;;
13114;SDS011;6623;52.120;8.660;2023-05-25T06:39:13;0.90;;;0.90;;
13114;SDS011;6623;52.120;8.660;2023-05-25T06:41:39;1.20;;;1.10;;
13114;SDS011;6623;52.120;8.660;2023-05-25T06:44:05;1.20;;;0.90;;
13114;SDS011;6623;52.120;8.660;2023-05-25T06:46:31;0.90;;;0.80;;
13114;SDS011;6623;52.120;8.660;2023-05-25T06:49:00;0.80;;;0.80;;
13114;SDS011;6623;52.120;8.660;2023-05-25T06:51:26;1.10;;;1.00;;
13114;SDS011;6623;52.120;8.660;2023-05-25T06:53:53;0.93;;;0.80;;
13114;SDS011;6623;52.120;8.660;2023-05-25T06:56:19;0.70;;;0.70;;
13114;SDS011;6623;52.120;8.660;2023-05-25T06:58:45;1.13;;;0.90;;
13114;SDS011;6623;52.120;8.660;2023-05-25T07:01:10;1.10;;;0.97;;
13114;SDS011;6623;52.120;8.660;2023-05-25T07:03:36;1.10;;;1.00;;
13114;SDS011;6623;52.120;8.660;2023-05-25T07:06:02;1.67;;;1.17;;
13114;SDS011;6623;52.120;8.660;2023-05-25T07:08:28;1.00;;;0.90;;
13114;SDS011;6623;52.120;8.660;2023-05-25T07:10:54;0.80;;;0.80;;
13114;SDS011;6623;52.120;8.660;2023-05-25T07:13:19;1.07;;;0.97;;
13114;SDS011;6623;52.120;8.660;2023-05-25T07:15:45;1.43;;;1.03;;
13114;SDS011;6623;52.120;8.660;2023-05-25T07:18:11;1.20;;;1.00;;
13114;SDS011;6623;52.120;8.660;2023-05-25T07:20:37;1.20;;;0.90;;
13114;SDS011;6623;52.120;8.660;2023-05-25T07:23:06;1.20;;;1.00;;
13114;SDS011;6623;52.120;8.660;2023-05-25T07:25:32;1.00;;;0.90;;
13114;SDS011;6623;52.120;8.660;2023-05-25T07:27:58;0.90;;;0.80;;
13114;SDS011;6623;52.120;8.660;2023-05-25T07:30:23;1.13;;;1.00;;
13114;SDS011;6623;52.120;8.660;2023-05-25T07:32:49;1.00;;;0.90;;
13114;SDS011;6623;52.120;8.660;2023-05-25T07:35:14;0.80;;;0.80;;
13114;SDS011;6623;52.120;8.660;2023-05-25T07:37:40;1.60;;;0.80;;
13114;SDS011;6623;52.120;8.660;2023-05-25T07:40:05;1.70;;;1.10;;
13114;SDS011;6623;52.120;8.660;2023-05-25T07:42:31;1.00;;;0.90;;
13114;SDS011;6623;52.120;8.660;2023-05-25T07:44:59;1.70;;;1.17;;
13114;SDS011;6623;52.120;8.660;2023-05-25T07:47:25;1.23;;;1.00;;
13114;SDS011;6623;52.120;8.660;2023-05-25T07:49:50;1.27;;;0.97;;
13114;SDS011;6623;52.120;8.660;2023-05-25T07:52:16;1.17;;;1.00;;
13114;SDS011;6623;52.120;8.660;2023-05-25T07:54:42;2.03;;;0.97;;
13114;SDS011;6623;52.120;8.660;2023-05-25T07:57:08;1.10;;;0.90;;
13114;SDS011;6623;52.120;8.660;2023-05-25T07:59:34;1.33;;;1.00;;
13114;SDS011;6623;52.120;8.660;2023-05-25T08:02:00;1.47;;;1.07;;
13114;SDS011;6623;52.120;8.660;2023-05-25T08:04:25;2.30;;;0.90;;
13114;SDS011;6623;52.120;8.660;2023-05-25T08:06:51;0.80;;;0.80;;
13114;SDS011;6623;52.120;8.660;2023-05-25T08:09:17;1.27;;;1.10;;
13114;SDS011;6623;52.120;8.660;2023-05-25T08:11:42;1.20;;;1.10;;
13114;SDS011;6623;52.120;8.660;2023-05-25T08:14:09;1.10;;;1.00;;
13114;SDS011;6623;52.120;8.660;2023-05-25T08:16:35;0.80;;;0.80;;
13114;SDS011;6623;52.120;8.660;2023-05-25T08:19:00;1.00;;;0.83;;
13114;SDS011;6623;52.120;8.660;2023-05-25T08:21:26;1.00;;;0.90;;
13114;SDS011;6623;52.120;8.660;2023-05-25T08:23:51;1.10;;;1.00;;
13114;SDS011;6623;52.120;8.660;2023-05-25T08:26:18;1.60;;;1.07;;
13114;SDS011;6623;52.120;8.660;2023-05-25T08:28:43;0.80;;;0.80;;
13114;SDS011;6623;52.120;8.660;2023-05-25T08:31:09;0.90;;;0.90;;
13114;SDS011;6623;52.120;8.660;2023-05-25T08:33:36;1.10;;;1.00;;
13114;SDS011;6623;52.120;8.660;2023-05-25T08:36:01;1.37;;;0.93;;
13114;SDS011;6623;52.120;8.660;2023-05-25T08:38:27;1.50;;;1.03;;
13114;SDS011;6623;52.120;8.660;2023-05-25T08:41:05;1.03;;;0.93;;
13114;SDS011;6623;52.120;8.660;2023-05-25T08:43:31;1.13;;;1.00;;
13114;SDS011;6623;52.120;8.660;2023-05-25T08:46:01;1.27;;;1.03;;
13114;SDS011;6623;52.120;8.660;2023-05-25T08:48:34;1.00;;;0.90;;
13114;SDS011;6623;52.120;8.660;2023-05-25T08:51:07;1.60;;;1.10;;
13114;SDS011;6623;52.120;8.660;2023-05-25T08:53:35;1.30;;;1.00;;
13114;SDS011;6623;52.120;8.660;2023-05-25T08:56:04;1.57;;;1.07;;
13114;SDS011;6623;52.120;8.660;2023-05-25T08:58:37;1.20;;;1.03;;
13114;SDS011;6623;52.120;8.660;2023-05-25T09:01:08;1.20;;;1.10;;
13114;SDS011;6623;52.120;8.660;2023-05-25T09:03:36;1.50;;;1.10;;
13114;SDS011;6623;52.120;8.660;2023-05-25T09:06:03;1.70;;;1.10;;
13114;SDS011;6623;52.120;8.660;2023-05-25T09:08:28;1.43;;;1.13;;
13114;SDS011;6623;52.120;8.660;2023-05-25T09:10:55;1.20;;;0.93;;
13114;SDS011;6623;52.120;8.660;2023-05-25T09:13:21;1.20;;;1.10;;
13114;SDS011;6623;52.120;8.660;2023-05-25T09:15:48;1.10;;;1.00;;
13114;SDS011;6623;52.120;8.660;2023-05-25T09:18:14;1.10;;;1.00;;
13114;SDS011;6623;52.120;8.660;2023-05-25T09:20:39;1.70;;;1.27;;
13114;SDS011;6623;52.120;8.660;2023-05-25T09:23:05;1.50;;;1.00;;
13114;SDS011;6623;52.120;8.660;2023-05-25T09:25:30;2.67;;;1.10;;
13114;SDS011;6623;52.120;8.660;2023-05-25T09:27:57;1.50;;;0.90;;
13114;SDS011;6623;52.120;8.660;2023-05-25T09:30:23;1.57;;;1.10;;
13114;SDS011;6623;52.120;8.660;2023-05-25T09:32:49;1.50;;;1.40;;
13114;SDS011;6623;52.120;8.660;2023-05-25T09:35:15;2.23;;;1.30;;
13114;SDS011;6623;52.120;8.660;2023-05-25T09:37:41;1.17;;;1.07;;
13114;SDS011;6623;52.120;8.660;2023-05-25T09:40:08;2.50;;;1.10;;
13114;SDS011;6623;52.120;8.660;2023-05-25T09:42:35;1.50;;;1.03;;
13114;SDS011;6623;52.120;8.660;2023-05-25T09:45:01;1.43;;;1.07;;
13114;SDS011;6623;52.120;8.660;2023-05-25T09:47:28;1.20;;;1.00;;
13114;SDS011;6623;52.120;8.660;2023-05-25T09:49:54;1.67;;;1.20;;
13114;SDS011;6623;52.120;8.660;2023-05-25T09:52:21;1.30;;;1.00;;
13114;SDS011;6623;52.120;8.660;2023-05-25T09:54:47;1.10;;;1.00;;
13114;SDS011;6623;52.120;8.660;2023-05-25T09:57:19;1.20;;;1.10;;
13114;SDS011;6623;52.120;8.660;2023-05-25T09:59:45;1.30;;;1.10;;
13114;SDS011;6623;52.120;8.660;2023-05-25T10:02:11;1.43;;;1.10;;
13114;SDS011;6623;52.120;8.660;2023-05-25T10:04:37;1.37;;;1.20;;
13114;SDS011;6623;52.120;8.660;2023-05-25T10:07:03;1.50;;;1.10;;
13114;SDS011;6623;52.120;8.660;2023-05-25T10:09:29;1.90;;;1.30;;
13114;SDS011;6623;52.120;8.660;2023-05-25T10:11:55;1.50;;;1.00;;
13114;SDS011;6623;52.120;8.660;2023-05-25T10:14:22;1.77;;;1.00;;
13114;SDS011;6623;52.120;8.660;2023-05-25T10:16:52;1.13;;;1.03;;
13114;SDS011;6623;52.120;8.660;2023-05-25T10:19:19;1.13;;;0.90;;
13114;SDS011;6623;52.120;8.660;2023-05-25T10:22:02;1.13;;;1.03;;
13114;SDS011;6623;52.120;8.660;2023-05-25T10:24:33;1.17;;;0.97;;
13114;SDS011;6623;52.120;8.660;2023-05-25T10:27:23;1.80;;;1.27;;
13114;SDS011;6623;52.120;8.660;2023-05-25T10:29:50;1.30;;;1.20;;
13114;SDS011;6623;52.120;8.660;2023-05-25T10:32:16;1.47;;;1.10;;
13114;SDS011;6623;52.120;8.660;2023-05-25T10:34:42;1.13;;;1.00;;
13114;SDS011;6623;52.120;8.660;2023-05-25T10:37:08;1.47;;;1.20;;
13114;SDS011;6623;52.120;8.660;2023-05-25T10:39:36;1.93;;;1.13;;
13114;SDS011;6623;52.120;8.660;2023-05-25T10:42:03;1.17;;;1.07;;
13114;SDS011;6623;52.120;8.660;2023-05-25T10:44:30;2.00;;;1.13;;
13114;SDS011;6623;52.120;8.660;2023-05-25T10:46:58;1.20;;;1.10;;
13114;SDS011;6623;52.120;8.660;2023-05-25T10:49:26;1.10;;;0.90;;
13114;SDS011;6623;52.120;8.660;2023-05-25T10:51:56;1.07;;;0.87;;
13114;SDS011;6623;52.120;8.660;2023-05-25T10:54:27;1.23;;;1.00;;
13114;SDS011;6623;52.120;8.660;2023-05-25T10:57:07;1.30;;;1.20;;
13114;SDS011;6623;52.120;8.660;2023-05-25T10:59:41;1.13;;;0.97;;
13114;SDS011;6623;52.120;8.660;2023-05-25T11:02:09;1.67;;;1.10;;
13114;SDS011;6623;52.120;8.660;2023-05-25T11:04:35;1.10;;;1.00;;
13114;SDS011;6623;52.120;8.660;2023-05-25T11:09:29;1.07;;;0.97;;
13114;SDS011;6623;52.120;8.660;2023-05-25T11:14:26;1.30;;;1.20;;
13114;SDS011;6623;52.120;8.660;2023-05-25T11:17:09;1.40;;;1.03;;
13114;SDS011;6623;52.120;8.660;2023-05-25T11:22:19;1.93;;;1.30;;
13114;SDS011;6623;52.120;8.660;2023-05-25T11:24:48;1.43;;;1.10;;
13114;SDS011;6623;52.120;8.660;2023-05-25T11:27:15;1.63;;;1.10;;
13114;SDS011;6623;52.120;8.660;2023-05-25T11:29:50;1.57;;;1.20;;
13114;SDS011;6623;52.120;8.660;2023-05-25T11:32:16;1.67;;;1.30;;
13114;SDS011;6623;52.120;8.660;2023-05-25T11:34:42;1.50;;;1.10;;
13114;SDS011;6623;52.120;8.660;2023-05-25T11:37:17;1.43;;;1.07;;
13114;SDS011;6623;52.120;8.660;2023-05-25T11:39:46;1.20;;;1.10;;
13114;SDS011;6623;52.120;8.660;2023-05-25T11:42:13;1.70;;;1.20;;
13114;SDS011;6623;52.120;8.660;2023-05-25T11:44:39;1.37;;;1.20;;
13114;SDS011;6623;52.120;8.660;2023-05-25T11:47:06;1.23;;;1.13;;
13114;SDS011;6623;52.120;8.660;2023-05-25T11:49:33;1.43;;;1.10;;
13114;SDS011;6623;52.120;8.660;2023-05-25T11:52:03;1.67;;;1.20;;
13114;SDS011;6623;52.120;8.660;2023-05-25T11:54:32;1.50;;;1.20;;
13114;SDS011;6623;52.120;8.660;2023-05-25T11:56:58;1.53;;;1.10;;
13114;SDS011;6623;52.120;8.660;2023-05-25T11:59:25;1.57;;;1.27;;
13114;SDS011;6623;52.120;8.660;2023-05-25T12:01:58;1.40;;;1.13;;
13114;SDS011;6623;52.120;8.660;2023-05-25T12:04:28;1.40;;;1.30;;
13114;SDS011;6623;52.120;8.660;2023-05-25T12:07:04;1.40;;;1.30;;
13114;SDS011;6623;52.120;8.660;2023-05-25T12:09:31;1.33;;;1.20;;
13114;SDS011;6623;52.120;8.660;2023-05-25T12:11:56;1.77;;;1.10;;
13114;SDS011;6623;52.120;8.660;2023-05-25T12:14:22;1.57;;;1.30;;
13114;SDS011;6623;52.120;8.660;2023-05-25T12:16:48;1.40;;;1.10;;
13114;SDS011;6623;52.120;8.660;2023-05-25T12:19:15;1.40;;;1.20;;
13114;SDS011;6623;52.120;8.660;2023-05-25T12:21:41;1.40;;;1.27;;
13114;SDS011;6623;52.120;8.660;2023-05-25T12:24:07;1.50;;;1.20;;
13114;SDS011;6623;52.120;8.660;2023-05-25T12:26:45;1.30;;;1.20;;
13114;SDS011;6623;52.120;8.660;2023-05-25T12:29:15;1.30;;;1.10;;
13114;SDS011;6623;52.120;8.660;2023-05-25T12:31:40;1.60;;;1.30;;
13114;SDS011;6623;52.120;8.660;2023-05-25T12:34:10;1.80;;;1.30;;
13114;SDS011;6623;52.120;8.660;2023-05-25T12:39:05;1.40;;;1.20;;
13114;SDS011;6623;52.120;8.660;2023-05-25T12:41:40;1.53;;;1.23;;
13114;SDS011;6623;52.120;8.660;2023-05-25T12:44:20;1.27;;;1.17;;
13114;SDS011;6623;52.120;8.660;2023-05-25T12:46:51;1.40;;;1.30;;
13114;SDS011;6623;52.120;8.660;2023-05-25T12:49:24;1.70;;;1.20;;
13114;SDS011;6623;52.120;8.660;2023-05-25T12:51:50;1.40;;;1.20;;
13114;SDS011;6623;52.120;8.660;2023-05-25T12:54:15;1.60;;;1.30;;
13114;SDS011;6623;52.120;8.660;2023-05-25T12:56:57;1.70;;;1.40;;
13114;SDS011;6623;52.120;8.660;2023-05-25T12:59:23;1.20;;;1.10;;
13114;SDS011;6623;52.120;8.660;2023-05-25T13:01:49;1.60;;;1.30;;
13114;SDS011;6623;52.120;8.660;2023-05-25T13:04:15;1.30;;;1.20;;
13114;SDS011;6623;52.120;8.660;2023-05-25T13:06:40;1.43;;;1.30;;
13114;SDS011;6623;52.120;8.660;2023-05-25T13:09:06;1.13;;;1.00;;
13114;SDS011;6623;52.120;8.660;2023-05-25T13:11:31;1.50;;;1.40;;
13114;SDS011;6623;52.120;8.660;2023-05-25T13:13:57;1.47;;;1.30;;
13114;SDS011;6623;52.120;8.660;2023-05-25T13:16:22;1.50;;;1.40;;
13114;SDS011;6623;52.120;8.660;2023-05-25T13:18:49;1.30;;;1.20;;
13114;SDS011;6623;52.120;8.660;2023-05-25T13:21:15;1.20;;;1.10;;
13114;SDS011;6623;52.120;8.660;2023-05-25T13:23:41;1.67;;;1.30;;
13114;SDS011;6623;52.120;8.660;2023-05-25T13:26:06;1.30;;;1.20;;
13114;SDS011;6623;52.120;8.660;2023-05-25T13:28:32;1.30;;;1.10;;
13114;SDS011;6623;52.120;8.660;2023-05-25T13:30:57;1.57;;;1.40;;
13114;SDS011;6623;52.120;8.660;2023-05-25T13:33:22;1.50;;;1.30;;
13114;SDS011;6623;52.120;8.660;2023-05-25T13:35:48;1.60;;;1.27;;
13114;SDS011;6623;52.120;8.660;2023-05-25T13:38:31;1.33;;;1.23;;
13114;SDS011;6623;52.120;8.660;2023-05-25T13:40:57;2.30;;;1.40;;
13114;SDS011;6623;52.120;8.660;2023-05-25T13:43:23;1.60;;;1.17;;
13114;SDS011;6623;52.120;8.660;2023-05-25T13:45:49;1.10;;;1.10;;
13114;SDS011;6623;52.120;8.660;2023-05-25T13:48:15;1.30;;;1.20;;
13114;SDS011;6623;52.120;8.660;2023-05-25T13:50:41;1.40;;;1.30;;
13114;SDS011;6623;52.120;8.660;2023-05-25T13:53:08;1.57;;;1.30;;
13114;SDS011;6623;52.120;8.660;2023-05-25T13:55:37;1.73;;;1.40;;
13114;SDS011;6623;52.120;8.660;2023-05-25T13:58:03;1.70;;;1.43;;
13114;SDS011;6623;52.120;8.660;2023-05-25T14:00:29;1.20;;;1.10;;
13114;SDS011;6623;52.120;8.660;2023-05-25T14:02:55;1.73;;;1.40;;
13114;SDS011;6623;52.120;8.660;2023-05-25T14:05:21;1.50;;;1.30;;
13114;SDS011;6623;52.120;8.660;2023-05-25T14:07:47;1.73;;;1.30;;
13114;SDS011;6623;52.120;8.660;2023-05-25T14:10:12;2.13;;;1.20;;
13114;SDS011;6623;52.120;8.660;2023-05-25T14:12:38;1.37;;;1.20;;
13114;SDS011;6623;52.120;8.660;2023-05-25T14:15:05;1.90;;;1.27;;
13114;SDS011;6623;52.120;8.660;2023-05-25T14:17:31;1.57;;;1.20;;
13114;SDS011;6623;52.120;8.660;2023-05-25T14:19:57;1.67;;;1.20;;
13114;SDS011;6623;52.120;8.660;2023-05-25T14:22:23;1.50;;;1.23;;
13114;SDS011;6623;52.120;8.660;2023-05-25T14:24:49;1.87;;;1.30;;
13114;SDS011;6623;52.120;8.660;2023-05-25T14:27:15;1.40;;;1.20;;
13114;SDS011;6623;52.120;8.660;2023-05-25T14:29:44;1.83;;;1.33;;
13114;SDS011;6623;52.120;8.660;2023-05-25T14:32:11;1.90;;;1.33;;
13114;SDS011;6623;52.120;8.660;2023-05-25T14:34:36;1.87;;;1.40;;
13114;SDS011;6623;52.120;8.660;2023-05-25T14:37:02;2.13;;;1.30;;
13114;SDS011;6623;52.120;8.660;2023-05-25T14:39:27;1.73;;;1.40;;
13114;SDS011;6623;52.120;8.660;2023-05-25T14:41:53;1.70;;;1.27;;
13114;SDS011;6623;52.120;8.660;2023-05-25T14:44:20;1.63;;;1.30;;
13114;SDS011;6623;52.120;8.660;2023-05-25T14:46:45;2.73;;;1.30;;
13114;SDS011;6623;52.120;8.660;2023-05-25T14:49:11;1.50;;;1.40;;
13114;SDS011;6623;52.120;8.660;2023-05-25T14:51:37;2.00;;;1.23;;
13114;SDS011;6623;52.120;8.660;2023-05-25T14:56:49;3.93;;;1.43;;
13114;SDS011;6623;52.120;8.660;2023-05-25T14:59:15;3.87;;;1.53;;
13114;SDS011;6623;52.120;8.660;2023-05-25T15:01:40;5.67;;;2.10;;
13114;SDS011;6623;52.120;8.660;2023-05-25T15:04:06;5.90;;;1.77;;
13114;SDS011;6623;52.120;8.660;2023-05-25T15:06:32;3.60;;;1.97;;
13114;SDS011;6623;52.120;8.660;2023-05-25T15:08:58;7.27;;;2.27;;
13114;SDS011;6623;52.120;8.660;2023-05-25T15:11:23;7.10;;;2.27;;
13114;SDS011;6623;52.120;8.660;2023-05-25T15:13:49;6.17;;;2.10;;